sensor_id;sensor_type;location;lat;lon;timestamp;P1;durP1;ratioP1;P2;durP2;ratioP2
85257;SDS011;75669;48.038;10.158;2024-03-02T00:01:53;6.90;;;3.05;;
85257;SDS011;75669;48.038;10.158;2024-03-02T00:05:21;6.70;;;3.22;;
85257;SDS011;75669;48.038;10.158;2024-03-02T00:08:46;7.45;;;3.40;;
85257;SDS011;75669;48.038;10.158;2024-03-02T00:12:11;5.95;;;2.95;;
85257;SDS011;75669;48.038;10.158;2024-03-02T00:15:45;5.78;;;3.05;;
85257;SDS011;75669;48.038;10.158;2024-03-02T00:19:09;9.55;;;3.22;;
85257;SDS011;75669;48.038;10.158;2024-03-02T00:22:35;6.47;;;3.20;;
85257;SDS011;75669;48.038;10.158;2024-03-02T00:26:00;6.57;;;2.85;;
85257;SDS011;75669;48.038;10.158;2024-03-02T00:29:23;7.43;;;3.17;;
85257;SDS011;75669;48.038;10.158;2024-03-02T00:32:57;7.15;;;3.50;;
85257;SDS011;75669;48.038;10.158;2024-03-02T00:36:30;7.72;;;3.58;;
85257;SDS011;75669;48.038;10.158;2024-03-02T00:39:54;7.28;;;3.92;;
85257;SDS011;75669;48.038;10.158;2024-03-02T00:46:59;6.60;;;3.65;;
85257;SDS011;75669;48.038;10.158;2024-03-02T00:50:23;6.35;;;2.83;;
85257;SDS011;75669;48.038;10.158;2024-03-02T00:53:48;6.25;;;3.67;;
85257;SDS011;75669;48.038;10.158;2024-03-02T00:57:12;6.57;;;2.90;;
85257;SDS011;75669;48.038;10.158;2024-03-02T01:00:37;5.70;;;2.97;;
85257;SDS011;75669;48.038;10.158;2024-03-02T01:04:01;7.63;;;3.83;;
85257;SDS011;75669;48.038;10.158;2024-03-02T01:07:25;8.15;;;3.90;;
85257;SDS011;75669;48.038;10.158;2024-03-02T01:10:49;6.78;;;3.25;;
85257;SDS011;75669;48.038;10.158;2024-03-02T01:14:13;7.18;;;3.70;;
85257;SDS011;75669;48.038;10.158;2024-03-02T01:17:37;7.68;;;3.45;;
85257;SDS011;75669;48.038;10.158;2024-03-02T01:21:01;8.13;;;3.45;;
85257;SDS011;75669;48.038;10.158;2024-03-02T01:24:25;8.40;;;4.53;;
85257;SDS011;75669;48.038;10.158;2024-03-02T01:27:49;7.43;;;3.72;;
85257;SDS011;75669;48.038;10.158;2024-03-02T01:31:13;8.15;;;4.38;;
85257;SDS011;75669;48.038;10.158;2024-03-02T01:34:37;8.73;;;4.47;;
85257;SDS011;75669;48.038;10.158;2024-03-02T01:38:02;9.75;;;4.28;;
85257;SDS011;75669;48.038;10.158;2024-03-02T01:41:26;8.10;;;4.00;;
85257;SDS011;75669;48.038;10.158;2024-03-02T01:44:50;6.68;;;3.88;;
85257;SDS011;75669;48.038;10.158;2024-03-02T01:48:14;8.52;;;4.25;;
85257;SDS011;75669;48.038;10.158;2024-03-02T01:51:38;8.23;;;4.53;;
85257;SDS011;75669;48.038;10.158;2024-03-02T01:55:02;8.30;;;4.43;;
85257;SDS011;75669;48.038;10.158;2024-03-02T01:58:26;7.55;;;3.80;;
85257;SDS011;75669;48.038;10.158;2024-03-02T02:01:50;6.55;;;3.50;;
85257;SDS011;75669;48.038;10.158;2024-03-02T02:05:14;7.40;;;3.67;;
85257;SDS011;75669;48.038;10.158;2024-03-02T02:08:38;8.15;;;4.18;;
85257;SDS011;75669;48.038;10.158;2024-03-02T02:12:02;10.23;;;5.28;;
85257;SDS011;75669;48.038;10.158;2024-03-02T02:15:27;12.23;;;5.07;;
85257;SDS011;75669;48.038;10.158;2024-03-02T02:18:51;8.52;;;4.78;;
85257;SDS011;75669;48.038;10.158;2024-03-02T02:22:15;10.32;;;4.75;;
85257;SDS011;75669;48.038;10.158;2024-03-02T02:25:39;7.63;;;3.92;;
85257;SDS011;75669;48.038;10.158;2024-03-02T02:29:02;9.18;;;4.22;;
85257;SDS011;75669;48.038;10.158;2024-03-02T02:32:28;8.50;;;4.68;;
85257;SDS011;75669;48.038;10.158;2024-03-02T02:35:52;6.65;;;3.80;;
85257;SDS011;75669;48.038;10.158;2024-03-02T02:39:16;6.70;;;3.65;;
85257;SDS011;75669;48.038;10.158;2024-03-02T02:42:40;7.15;;;3.42;;
85257;SDS011;75669;48.038;10.158;2024-03-02T02:46:07;6.88;;;4.05;;
85257;SDS011;75669;48.038;10.158;2024-03-02T02:49:31;7.50;;;3.78;;
85257;SDS011;75669;48.038;10.158;2024-03-02T02:52:55;7.18;;;3.47;;
85257;SDS011;75669;48.038;10.158;2024-03-02T02:56:18;6.97;;;3.40;;
85257;SDS011;75669;48.038;10.158;2024-03-02T02:59:42;8.00;;;4.10;;
85257;SDS011;75669;48.038;10.158;2024-03-02T03:03:06;6.00;;;3.30;;
85257;SDS011;75669;48.038;10.158;2024-03-02T03:06:30;7.90;;;3.50;;
85257;SDS011;75669;48.038;10.158;2024-03-02T03:09:54;7.03;;;3.72;;
85257;SDS011;75669;48.038;10.158;2024-03-02T03:13:18;6.57;;;3.20;;
85257;SDS011;75669;48.038;10.158;2024-03-02T03:16:42;11.50;;;3.20;;
85257;SDS011;75669;48.038;10.158;2024-03-02T03:20:06;5.72;;;2.97;;
85257;SDS011;75669;48.038;10.158;2024-03-02T03:23:30;6.15;;;3.47;;
85257;SDS011;75669;48.038;10.158;2024-03-02T03:26:54;8.02;;;3.75;;
85257;SDS011;75669;48.038;10.158;2024-03-02T03:30:18;6.35;;;3.60;;
85257;SDS011;75669;48.038;10.158;2024-03-02T03:33:42;6.22;;;3.05;;
85257;SDS011;75669;48.038;10.158;2024-03-02T03:37:06;6.63;;;3.42;;
85257;SDS011;75669;48.038;10.158;2024-03-02T03:40:29;11.63;;;3.80;;
85257;SDS011;75669;48.038;10.158;2024-03-02T03:43:53;11.75;;;5.65;;
85257;SDS011;75669;48.038;10.158;2024-03-02T03:47:17;8.38;;;3.42;;
85257;SDS011;75669;48.038;10.158;2024-03-02T03:50:41;6.47;;;3.10;;
85257;SDS011;75669;48.038;10.158;2024-03-02T03:54:05;7.85;;;3.80;;
85257;SDS011;75669;48.038;10.158;2024-03-02T03:57:30;5.97;;;2.83;;
85257;SDS011;75669;48.038;10.158;2024-03-02T04:00:54;7.05;;;3.22;;
85257;SDS011;75669;48.038;10.158;2024-03-02T04:04:18;9.15;;;3.83;;
85257;SDS011;75669;48.038;10.158;2024-03-02T04:07:42;7.40;;;3.70;;
85257;SDS011;75669;48.038;10.158;2024-03-02T04:11:06;7.13;;;4.05;;
85257;SDS011;75669;48.038;10.158;2024-03-02T04:14:30;8.90;;;4.32;;
85257;SDS011;75669;48.038;10.158;2024-03-02T04:17:54;7.20;;;3.58;;
85257;SDS011;75669;48.038;10.158;2024-03-02T04:21:18;8.10;;;3.72;;
85257;SDS011;75669;48.038;10.158;2024-03-02T04:24:42;6.75;;;3.85;;
85257;SDS011;75669;48.038;10.158;2024-03-02T04:28:05;7.43;;;3.63;;
85257;SDS011;75669;48.038;10.158;2024-03-02T04:31:29;7.55;;;3.85;;
85257;SDS011;75669;48.038;10.158;2024-03-02T04:34:53;6.55;;;3.25;;
85257;SDS011;75669;48.038;10.158;2024-03-02T04:38:17;6.22;;;3.90;;
85257;SDS011;75669;48.038;10.158;2024-03-02T04:41:41;6.47;;;3.42;;
85257;SDS011;75669;48.038;10.158;2024-03-02T04:45:05;6.85;;;3.67;;
85257;SDS011;75669;48.038;10.158;2024-03-02T04:48:30;7.38;;;3.33;;
85257;SDS011;75669;48.038;10.158;2024-03-02T04:51:55;7.78;;;3.38;;
85257;SDS011;75669;48.038;10.158;2024-03-02T04:55:19;5.90;;;2.97;;
85257;SDS011;75669;48.038;10.158;2024-03-02T05:02:32;6.03;;;2.90;;
85257;SDS011;75669;48.038;10.158;2024-03-02T05:05:55;5.35;;;2.85;;
85257;SDS011;75669;48.038;10.158;2024-03-02T05:09:21;5.50;;;2.65;;
85257;SDS011;75669;48.038;10.158;2024-03-02T05:12:49;7.38;;;2.85;;
85257;SDS011;75669;48.038;10.158;2024-03-02T05:16:13;6.88;;;3.13;;
85257;SDS011;75669;48.038;10.158;2024-03-02T05:19:37;5.72;;;2.28;;
85257;SDS011;75669;48.038;10.158;2024-03-02T05:23:00;7.65;;;4.15;;
85257;SDS011;75669;48.038;10.158;2024-03-02T05:26:24;7.60;;;3.90;;
85257;SDS011;75669;48.038;10.158;2024-03-02T05:29:48;7.78;;;4.35;;
85257;SDS011;75669;48.038;10.158;2024-03-02T05:33:12;7.35;;;3.70;;
85257;SDS011;75669;48.038;10.158;2024-03-02T05:36:36;6.07;;;3.40;;
85257;SDS011;75669;48.038;10.158;2024-03-02T05:40:00;8.25;;;3.05;;
85257;SDS011;75669;48.038;10.158;2024-03-02T05:43:24;7.45;;;3.33;;
85257;SDS011;75669;48.038;10.158;2024-03-02T05:46:48;8.00;;;4.55;;
85257;SDS011;75669;48.038;10.158;2024-03-02T05:50:12;6.30;;;3.10;;
85257;SDS011;75669;48.038;10.158;2024-03-02T05:53:35;5.57;;;2.83;;
85257;SDS011;75669;48.038;10.158;2024-03-02T05:56:59;7.07;;;3.17;;
85257;SDS011;75669;48.038;10.158;2024-03-02T06:00:23;7.55;;;3.40;;
85257;SDS011;75669;48.038;10.158;2024-03-02T06:03:53;7.57;;;4.20;;
85257;SDS011;75669;48.038;10.158;2024-03-02T06:07:18;8.75;;;4.68;;
85257;SDS011;75669;48.038;10.158;2024-03-02T06:10:43;8.88;;;5.80;;
85257;SDS011;75669;48.038;10.158;2024-03-02T06:14:07;9.68;;;4.93;;
85257;SDS011;75669;48.038;10.158;2024-03-02T06:17:31;6.47;;;4.22;;
85257;SDS011;75669;48.038;10.158;2024-03-02T06:20:55;9.00;;;4.63;;
85257;SDS011;75669;48.038;10.158;2024-03-02T06:24:19;7.25;;;3.75;;
85257;SDS011;75669;48.038;10.158;2024-03-02T06:27:43;6.57;;;3.08;;
85257;SDS011;75669;48.038;10.158;2024-03-02T06:31:08;6.45;;;3.70;;
85257;SDS011;75669;48.038;10.158;2024-03-02T06:34:31;11.60;;;7.30;;
85257;SDS011;75669;48.038;10.158;2024-03-02T06:37:55;9.73;;;5.45;;
85257;SDS011;75669;48.038;10.158;2024-03-02T06:41:19;13.80;;;6.95;;
85257;SDS011;75669;48.038;10.158;2024-03-02T06:44:43;6.80;;;3.85;;
85257;SDS011;75669;48.038;10.158;2024-03-02T06:48:07;9.13;;;3.90;;
85257;SDS011;75669;48.038;10.158;2024-03-02T06:51:31;7.65;;;4.20;;
85257;SDS011;75669;48.038;10.158;2024-03-02T06:54:54;8.35;;;3.78;;
85257;SDS011;75669;48.038;10.158;2024-03-02T06:58:18;7.10;;;3.72;;
85257;SDS011;75669;48.038;10.158;2024-03-02T07:01:42;7.72;;;3.92;;
85257;SDS011;75669;48.038;10.158;2024-03-02T07:05:06;9.10;;;5.13;;
85257;SDS011;75669;48.038;10.158;2024-03-02T07:08:30;8.80;;;4.75;;
85257;SDS011;75669;48.038;10.158;2024-03-02T07:11:54;7.70;;;4.43;;
85257;SDS011;75669;48.038;10.158;2024-03-02T07:15:18;7.75;;;4.13;;
85257;SDS011;75669;48.038;10.158;2024-03-02T07:18:57;8.77;;;4.75;;
85257;SDS011;75669;48.038;10.158;2024-03-02T07:22:22;9.15;;;3.92;;
85257;SDS011;75669;48.038;10.158;2024-03-02T07:29:13;8.85;;;4.60;;
85257;SDS011;75669;48.038;10.158;2024-03-02T07:32:39;11.38;;;5.55;;
85257;SDS011;75669;48.038;10.158;2024-03-02T07:36:03;10.75;;;4.93;;
85257;SDS011;75669;48.038;10.158;2024-03-02T07:39:27;8.30;;;4.55;;
85257;SDS011;75669;48.038;10.158;2024-03-02T07:42:51;8.45;;;4.28;;
85257;SDS011;75669;48.038;10.158;2024-03-02T07:46:15;9.38;;;5.15;;
85257;SDS011;75669;48.038;10.158;2024-03-02T07:49:39;9.98;;;5.50;;
85257;SDS011;75669;48.038;10.158;2024-03-02T07:53:04;10.57;;;4.70;;
85257;SDS011;75669;48.038;10.158;2024-03-02T07:56:28;8.57;;;5.47;;
85257;SDS011;75669;48.038;10.158;2024-03-02T07:59:52;8.25;;;4.57;;
85257;SDS011;75669;48.038;10.158;2024-03-02T08:03:16;13.02;;;9.23;;
85257;SDS011;75669;48.038;10.158;2024-03-02T08:06:40;10.73;;;5.72;;
85257;SDS011;75669;48.038;10.158;2024-03-02T08:10:04;9.48;;;5.43;;
85257;SDS011;75669;48.038;10.158;2024-03-02T08:13:28;10.20;;;6.20;;
85257;SDS011;75669;48.038;10.158;2024-03-02T08:16:52;9.23;;;4.40;;
85257;SDS011;75669;48.038;10.158;2024-03-02T08:20:16;9.45;;;4.70;;
85257;SDS011;75669;48.038;10.158;2024-03-02T08:23:40;6.40;;;4.05;;
85257;SDS011;75669;48.038;10.158;2024-03-02T08:27:04;6.30;;;3.00;;
85257;SDS011;75669;48.038;10.158;2024-03-02T08:30:28;8.27;;;3.78;;
85257;SDS011;75669;48.038;10.158;2024-03-02T08:33:52;7.40;;;3.83;;
85257;SDS011;75669;48.038;10.158;2024-03-02T08:37:16;7.55;;;3.42;;
85257;SDS011;75669;48.038;10.158;2024-03-02T08:40:40;8.38;;;4.93;;
85257;SDS011;75669;48.038;10.158;2024-03-02T08:44:04;7.25;;;4.13;;
85257;SDS011;75669;48.038;10.158;2024-03-02T08:47:28;7.85;;;4.10;;
85257;SDS011;75669;48.038;10.158;2024-03-02T08:50:51;9.55;;;5.03;;
85257;SDS011;75669;48.038;10.158;2024-03-02T08:54:20;8.02;;;3.45;;
85257;SDS011;75669;48.038;10.158;2024-03-02T08:57:44;10.63;;;5.75;;
85257;SDS011;75669;48.038;10.158;2024-03-02T09:01:09;8.45;;;3.80;;
85257;SDS011;75669;48.038;10.158;2024-03-02T09:04:33;8.63;;;3.75;;
85257;SDS011;75669;48.038;10.158;2024-03-02T09:07:57;7.18;;;3.75;;
85257;SDS011;75669;48.038;10.158;2024-03-02T09:11:21;6.70;;;2.70;;
85257;SDS011;75669;48.038;10.158;2024-03-02T09:14:45;4.20;;;2.10;;
85257;SDS011;75669;48.038;10.158;2024-03-02T09:18:09;4.55;;;2.00;;
85257;SDS011;75669;48.038;10.158;2024-03-02T09:21:34;5.95;;;2.88;;
85257;SDS011;75669;48.038;10.158;2024-03-02T09:24:58;5.57;;;2.47;;
85257;SDS011;75669;48.038;10.158;2024-03-02T09:28:22;5.32;;;2.42;;
85257;SDS011;75669;48.038;10.158;2024-03-02T09:31:46;5.32;;;2.33;;
85257;SDS011;75669;48.038;10.158;2024-03-02T09:35:10;5.10;;;1.95;;
85257;SDS011;75669;48.038;10.158;2024-03-02T09:38:43;4.32;;;1.90;;
85257;SDS011;75669;48.038;10.158;2024-03-02T09:42:08;4.53;;;1.70;;
85257;SDS011;75669;48.038;10.158;2024-03-02T09:45:32;3.50;;;1.63;;
85257;SDS011;75669;48.038;10.158;2024-03-02T09:48:56;4.10;;;1.83;;
85257;SDS011;75669;48.038;10.158;2024-03-02T09:52:21;3.72;;;1.33;;
85257;SDS011;75669;48.038;10.158;2024-03-02T09:55:46;3.10;;;1.40;;
85257;SDS011;75669;48.038;10.158;2024-03-02T09:59:10;3.15;;;1.42;;
85257;SDS011;75669;48.038;10.158;2024-03-02T10:02:39;3.65;;;1.35;;
85257;SDS011;75669;48.038;10.158;2024-03-02T10:06:23;3.20;;;1.40;;
85257;SDS011;75669;48.038;10.158;2024-03-02T10:09:47;2.42;;;0.95;;
85257;SDS011;75669;48.038;10.158;2024-03-02T10:13:12;2.47;;;1.05;;
85257;SDS011;75669;48.038;10.158;2024-03-02T10:16:37;2.67;;;0.95;;
85257;SDS011;75669;48.038;10.158;2024-03-02T10:23:44;2.33;;;0.90;;
85257;SDS011;75669;48.038;10.158;2024-03-02T10:27:16;2.10;;;0.95;;
85257;SDS011;75669;48.038;10.158;2024-03-02T10:30:40;2.17;;;0.82;;
85257;SDS011;75669;48.038;10.158;2024-03-02T10:34:06;2.65;;;1.10;;
85257;SDS011;75669;48.038;10.158;2024-03-02T10:37:30;2.38;;;1.10;;
85257;SDS011;75669;48.038;10.158;2024-03-02T10:40:56;2.05;;;0.55;;
85257;SDS011;75669;48.038;10.158;2024-03-02T10:44:22;2.00;;;0.77;;
85257;SDS011;75669;48.038;10.158;2024-03-02T10:47:49;2.28;;;0.82;;
85257;SDS011;75669;48.038;10.158;2024-03-02T10:51:14;2.83;;;1.10;;
85257;SDS011;75669;48.038;10.158;2024-03-02T10:54:38;2.58;;;0.90;;
85257;SDS011;75669;48.038;10.158;2024-03-02T10:58:02;2.42;;;1.20;;
85257;SDS011;75669;48.038;10.158;2024-03-02T11:01:29;2.45;;;0.80;;
85257;SDS011;75669;48.038;10.158;2024-03-02T11:04:55;3.70;;;0.85;;
85257;SDS011;75669;48.038;10.158;2024-03-02T11:08:22;2.70;;;1.02;;
85257;SDS011;75669;48.038;10.158;2024-03-02T11:11:52;3.10;;;1.23;;
85257;SDS011;75669;48.038;10.158;2024-03-02T11:15:20;2.58;;;1.05;;
85257;SDS011;75669;48.038;10.158;2024-03-02T11:19:02;2.97;;;1.20;;
85257;SDS011;75669;48.038;10.158;2024-03-02T11:22:28;2.28;;;0.95;;
85257;SDS011;75669;48.038;10.158;2024-03-02T11:30:15;4.38;;;1.10;;
85257;SDS011;75669;48.038;10.158;2024-03-02T11:34:17;7.75;;;2.42;;
85257;SDS011;75669;48.038;10.158;2024-03-02T11:37:41;2.55;;;1.23;;
85257;SDS011;75669;48.038;10.158;2024-03-02T11:41:08;2.85;;;1.00;;
85257;SDS011;75669;48.038;10.158;2024-03-02T11:44:34;3.03;;;0.70;;
85257;SDS011;75669;48.038;10.158;2024-03-02T11:47:59;1.60;;;0.70;;
85257;SDS011;75669;48.038;10.158;2024-03-02T11:51:24;2.88;;;0.70;;
85257;SDS011;75669;48.038;10.158;2024-03-02T11:54:48;3.22;;;1.30;;
85257;SDS011;75669;48.038;10.158;2024-03-02T11:58:13;3.17;;;1.00;;
85257;SDS011;75669;48.038;10.158;2024-03-02T12:01:49;3.03;;;1.17;;
85257;SDS011;75669;48.038;10.158;2024-03-02T12:04:15;2.42;;;1.02;;
85257;SDS011;75669;48.038;10.158;2024-03-02T12:06:40;3.77;;;1.27;;
85257;SDS011;75669;48.038;10.158;2024-03-02T12:09:07;3.80;;;1.40;;
85257;SDS011;75669;48.038;10.158;2024-03-02T12:11:36;3.33;;;1.30;;
85257;SDS011;75669;48.038;10.158;2024-03-02T12:14:02;2.22;;;0.98;;
85257;SDS011;75669;48.038;10.158;2024-03-02T12:16:27;2.63;;;1.25;;
85257;SDS011;75669;48.038;10.158;2024-03-02T12:18:53;2.33;;;0.88;;
85257;SDS011;75669;48.038;10.158;2024-03-02T12:21:18;2.78;;;1.08;;
85257;SDS011;75669;48.038;10.158;2024-03-02T12:23:43;1.70;;;0.83;;
85257;SDS011;75669;48.038;10.158;2024-03-02T12:26:09;1.70;;;0.82;;
85257;SDS011;75669;48.038;10.158;2024-03-02T12:28:34;1.63;;;0.60;;
85257;SDS011;75669;48.038;10.158;2024-03-02T12:30:59;2.25;;;1.00;;
85257;SDS011;75669;48.038;10.158;2024-03-02T12:33:25;2.07;;;1.07;;
85257;SDS011;75669;48.038;10.158;2024-03-02T12:35:51;2.58;;;1.52;;
85257;SDS011;75669;48.038;10.158;2024-03-02T12:38:16;1.70;;;0.80;;
85257;SDS011;75669;48.038;10.158;2024-03-02T12:40:42;2.27;;;0.80;;
85257;SDS011;75669;48.038;10.158;2024-03-02T12:43:07;4.23;;;1.33;;
85257;SDS011;75669;48.038;10.158;2024-03-02T12:45:32;2.23;;;1.27;;
85257;SDS011;75669;48.038;10.158;2024-03-02T12:47:59;2.38;;;0.90;;
85257;SDS011;75669;48.038;10.158;2024-03-02T12:50:25;2.13;;;0.80;;
85257;SDS011;75669;48.038;10.158;2024-03-02T12:52:50;3.00;;;1.05;;
85257;SDS011;75669;48.038;10.158;2024-03-02T12:55:16;2.60;;;1.23;;
85257;SDS011;75669;48.038;10.158;2024-03-02T12:57:42;1.70;;;1.00;;
85257;SDS011;75669;48.038;10.158;2024-03-02T13:00:08;2.42;;;0.90;;
85257;SDS011;75669;48.038;10.158;2024-03-02T13:02:39;1.95;;;0.77;;
85257;SDS011;75669;48.038;10.158;2024-03-02T13:05:05;2.63;;;0.90;;
85257;SDS011;75669;48.038;10.158;2024-03-02T13:07:31;2.30;;;0.63;;
85257;SDS011;75669;48.038;10.158;2024-03-02T13:09:58;1.60;;;0.80;;
85257;SDS011;75669;48.038;10.158;2024-03-02T13:12:24;3.42;;;1.50;;
85257;SDS011;75669;48.038;10.158;2024-03-02T13:14:52;1.77;;;1.00;;
85257;SDS011;75669;48.038;10.158;2024-03-02T13:17:18;2.10;;;0.95;;
85257;SDS011;75669;48.038;10.158;2024-03-02T13:22:18;2.25;;;0.90;;
85257;SDS011;75669;48.038;10.158;2024-03-02T13:24:43;2.72;;;1.13;;
85257;SDS011;75669;48.038;10.158;2024-03-02T13:27:08;2.13;;;1.10;;
85257;SDS011;75669;48.038;10.158;2024-03-02T13:29:34;2.70;;;1.30;;
85257;SDS011;75669;48.038;10.158;2024-03-02T13:31:59;2.13;;;1.13;;
85257;SDS011;75669;48.038;10.158;2024-03-02T13:34:24;2.20;;;0.90;;
85257;SDS011;75669;48.038;10.158;2024-03-02T13:36:49;3.73;;;1.00;;
85257;SDS011;75669;48.038;10.158;2024-03-02T13:39:15;4.18;;;1.65;;
85257;SDS011;75669;48.038;10.158;2024-03-02T13:41:41;3.55;;;1.20;;
85257;SDS011;75669;48.038;10.158;2024-03-02T13:44:06;4.15;;;2.42;;
85257;SDS011;75669;48.038;10.158;2024-03-02T13:46:31;3.50;;;1.73;;
85257;SDS011;75669;48.038;10.158;2024-03-02T13:48:57;5.53;;;2.60;;
85257;SDS011;75669;48.038;10.158;2024-03-02T13:51:22;5.97;;;1.87;;
85257;SDS011;75669;48.038;10.158;2024-03-02T13:53:48;3.23;;;1.57;;
85257;SDS011;75669;48.038;10.158;2024-03-02T13:56:13;4.93;;;1.80;;
85257;SDS011;75669;48.038;10.158;2024-03-02T13:58:38;3.45;;;1.98;;
85257;SDS011;75669;48.038;10.158;2024-03-02T14:01:04;3.10;;;1.23;;
85257;SDS011;75669;48.038;10.158;2024-03-02T14:03:30;2.88;;;1.65;;
85257;SDS011;75669;48.038;10.158;2024-03-02T14:05:55;4.15;;;1.48;;
85257;SDS011;75669;48.038;10.158;2024-03-02T14:08:21;2.90;;;1.10;;
85257;SDS011;75669;48.038;10.158;2024-03-02T14:10:46;4.70;;;1.77;;
85257;SDS011;75669;48.038;10.158;2024-03-02T14:13:11;3.77;;;1.20;;
85257;SDS011;75669;48.038;10.158;2024-03-02T14:15:37;3.53;;;1.20;;
85257;SDS011;75669;48.038;10.158;2024-03-02T14:18:04;2.33;;;1.40;;
85257;SDS011;75669;48.038;10.158;2024-03-02T14:20:30;3.10;;;1.20;;
85257;SDS011;75669;48.038;10.158;2024-03-02T14:22:55;2.30;;;1.67;;
85257;SDS011;75669;48.038;10.158;2024-03-02T14:25:20;2.77;;;1.03;;
85257;SDS011;75669;48.038;10.158;2024-03-02T14:27:45;2.50;;;1.07;;
85257;SDS011;75669;48.038;10.158;2024-03-02T14:30:12;4.03;;;1.27;;
85257;SDS011;75669;48.038;10.158;2024-03-02T14:32:39;3.22;;;1.25;;
85257;SDS011;75669;48.038;10.158;2024-03-02T14:35:04;5.25;;;1.35;;
85257;SDS011;75669;48.038;10.158;2024-03-02T14:37:29;4.03;;;0.90;;
85257;SDS011;75669;48.038;10.158;2024-03-02T14:39:55;3.23;;;1.67;;
85257;SDS011;75669;48.038;10.158;2024-03-02T14:42:20;3.38;;;1.10;;
85257;SDS011;75669;48.038;10.158;2024-03-02T14:44:45;2.80;;;0.90;;
85257;SDS011;75669;48.038;10.158;2024-03-02T14:47:11;2.87;;;1.13;;
85257;SDS011;75669;48.038;10.158;2024-03-02T14:49:36;3.55;;;1.70;;
85257;SDS011;75669;48.038;10.158;2024-03-02T14:54:30;4.10;;;1.30;;
85257;SDS011;75669;48.038;10.158;2024-03-02T14:56:55;3.67;;;1.70;;
85257;SDS011;75669;48.038;10.158;2024-03-02T14:59:21;4.93;;;1.95;;
85257;SDS011;75669;48.038;10.158;2024-03-02T15:01:47;2.60;;;0.90;;
85257;SDS011;75669;48.038;10.158;2024-03-02T15:04:13;3.17;;;1.33;;
85257;SDS011;75669;48.038;10.158;2024-03-02T15:06:38;3.50;;;1.13;;
85257;SDS011;75669;48.038;10.158;2024-03-02T15:09:04;2.57;;;1.00;;
85257;SDS011;75669;48.038;10.158;2024-03-02T15:11:29;4.27;;;1.83;;
85257;SDS011;75669;48.038;10.158;2024-03-02T15:13:55;5.72;;;1.90;;
85257;SDS011;75669;48.038;10.158;2024-03-02T15:16:20;4.90;;;2.13;;
85257;SDS011;75669;48.038;10.158;2024-03-02T15:18:45;4.18;;;1.42;;
85257;SDS011;75669;48.038;10.158;2024-03-02T15:21:11;5.55;;;1.83;;
85257;SDS011;75669;48.038;10.158;2024-03-02T15:23:36;3.90;;;1.70;;
85257;SDS011;75669;48.038;10.158;2024-03-02T15:26:01;5.83;;;1.93;;
85257;SDS011;75669;48.038;10.158;2024-03-02T15:28:27;6.38;;;1.92;;
85257;SDS011;75669;48.038;10.158;2024-03-02T15:30:52;4.33;;;2.07;;
85257;SDS011;75669;48.038;10.158;2024-03-02T15:33:17;7.05;;;3.72;;
85257;SDS011;75669;48.038;10.158;2024-03-02T15:35:43;7.40;;;3.63;;
85257;SDS011;75669;48.038;10.158;2024-03-02T15:38:08;8.45;;;4.07;;
85257;SDS011;75669;48.038;10.158;2024-03-02T15:40:36;7.95;;;4.32;;
85257;SDS011;75669;48.038;10.158;2024-03-02T15:43:02;5.90;;;2.77;;
85257;SDS011;75669;48.038;10.158;2024-03-02T15:45:27;9.77;;;4.93;;
85257;SDS011;75669;48.038;10.158;2024-03-02T15:47:58;5.80;;;3.30;;
85257;SDS011;75669;48.038;10.158;2024-03-02T15:50:23;10.63;;;3.70;;
85257;SDS011;75669;48.038;10.158;2024-03-02T15:52:48;6.80;;;3.77;;
85257;SDS011;75669;48.038;10.158;2024-03-02T15:55:13;7.00;;;3.47;;
85257;SDS011;75669;48.038;10.158;2024-03-02T15:57:39;8.23;;;3.38;;
85257;SDS011;75669;48.038;10.158;2024-03-02T16:00:04;9.70;;;4.70;;
85257;SDS011;75669;48.038;10.158;2024-03-02T16:02:30;9.85;;;4.60;;
85257;SDS011;75669;48.038;10.158;2024-03-02T16:04:55;7.63;;;4.80;;
85257;SDS011;75669;48.038;10.158;2024-03-02T16:07:21;5.90;;;2.53;;
85257;SDS011;75669;48.038;10.158;2024-03-02T16:09:46;10.03;;;5.00;;
85257;SDS011;75669;48.038;10.158;2024-03-02T16:12:11;9.10;;;4.67;;
85257;SDS011;75669;48.038;10.158;2024-03-02T16:14:37;7.55;;;3.97;;
85257;SDS011;75669;48.038;10.158;2024-03-02T16:17:02;9.43;;;5.20;;
85257;SDS011;75669;48.038;10.158;2024-03-02T16:19:27;12.05;;;5.65;;
85257;SDS011;75669;48.038;10.158;2024-03-02T16:21:53;8.57;;;4.83;;
85257;SDS011;75669;48.038;10.158;2024-03-02T16:24:18;8.47;;;3.67;;
85257;SDS011;75669;48.038;10.158;2024-03-02T16:26:43;9.13;;;5.30;;
85257;SDS011;75669;48.038;10.158;2024-03-02T16:29:08;10.60;;;5.40;;
85257;SDS011;75669;48.038;10.158;2024-03-02T16:31:34;11.27;;;6.07;;
85257;SDS011;75669;48.038;10.158;2024-03-02T16:33:59;12.93;;;6.70;;
85257;SDS011;75669;48.038;10.158;2024-03-02T16:36:24;14.13;;;6.60;;
85257;SDS011;75669;48.038;10.158;2024-03-02T16:38:52;15.18;;;7.53;;
85257;SDS011;75669;48.038;10.158;2024-03-02T16:41:18;14.23;;;7.03;;
85257;SDS011;75669;48.038;10.158;2024-03-02T16:43:44;18.27;;;9.43;;
85257;SDS011;75669;48.038;10.158;2024-03-02T16:46:10;18.15;;;8.48;;
85257;SDS011;75669;48.038;10.158;2024-03-02T16:48:35;17.93;;;8.17;;
85257;SDS011;75669;48.038;10.158;2024-03-02T16:51:01;21.30;;;9.87;;
85257;SDS011;75669;48.038;10.158;2024-03-02T16:53:26;21.50;;;9.70;;
85257;SDS011;75669;48.038;10.158;2024-03-02T16:55:51;19.37;;;9.43;;
85257;SDS011;75669;48.038;10.158;2024-03-02T16:58:16;19.57;;;10.07;;
85257;SDS011;75669;48.038;10.158;2024-03-02T17:00:44;17.40;;;9.70;;
85257;SDS011;75669;48.038;10.158;2024-03-02T17:03:10;21.40;;;8.88;;
85257;SDS011;75669;48.038;10.158;2024-03-02T17:05:35;16.37;;;9.03;;
85257;SDS011;75669;48.038;10.158;2024-03-02T17:08:00;19.02;;;9.43;;
85257;SDS011;75669;48.038;10.158;2024-03-02T17:10:26;15.30;;;8.60;;
85257;SDS011;75669;48.038;10.158;2024-03-02T17:12:51;18.40;;;7.83;;
85257;SDS011;75669;48.038;10.158;2024-03-02T17:15:18;17.30;;;8.35;;
85257;SDS011;75669;48.038;10.158;2024-03-02T17:17:43;17.90;;;8.77;;
85257;SDS011;75669;48.038;10.158;2024-03-02T17:20:09;16.23;;;7.57;;
85257;SDS011;75669;48.038;10.158;2024-03-02T17:22:34;14.88;;;7.25;;
85257;SDS011;75669;48.038;10.158;2024-03-02T17:25:00;12.77;;;6.20;;
85257;SDS011;75669;48.038;10.158;2024-03-02T17:27:25;11.37;;;6.80;;
85257;SDS011;75669;48.038;10.158;2024-03-02T17:29:51;18.58;;;7.60;;
85257;SDS011;75669;48.038;10.158;2024-03-02T17:32:16;14.47;;;7.50;;
85257;SDS011;75669;48.038;10.158;2024-03-02T17:34:43;18.10;;;8.38;;
85257;SDS011;75669;48.038;10.158;2024-03-02T17:37:08;17.57;;;8.73;;
85257;SDS011;75669;48.038;10.158;2024-03-02T17:39:33;18.33;;;8.37;;
85257;SDS011;75669;48.038;10.158;2024-03-02T17:41:58;20.53;;;12.03;;
85257;SDS011;75669;48.038;10.158;2024-03-02T17:44:23;16.80;;;9.33;;
85257;SDS011;75669;48.038;10.158;2024-03-02T17:46:49;15.53;;;7.47;;
85257;SDS011;75669;48.038;10.158;2024-03-02T17:49:14;15.93;;;8.18;;
85257;SDS011;75669;48.038;10.158;2024-03-02T17:51:39;17.00;;;7.67;;
85257;SDS011;75669;48.038;10.158;2024-03-02T17:54:04;15.40;;;8.00;;
85257;SDS011;75669;48.038;10.158;2024-03-02T17:56:30;16.30;;;7.82;;
85257;SDS011;75669;48.038;10.158;2024-03-02T17:58:56;16.98;;;9.10;;
85257;SDS011;75669;48.038;10.158;2024-03-02T18:01:22;15.80;;;7.78;;
85257;SDS011;75669;48.038;10.158;2024-03-02T18:03:47;15.73;;;7.78;;
85257;SDS011;75669;48.038;10.158;2024-03-02T18:06:13;19.37;;;8.23;;
85257;SDS011;75669;48.038;10.158;2024-03-02T18:08:38;16.10;;;6.67;;
85257;SDS011;75669;48.038;10.158;2024-03-02T18:11:03;13.90;;;7.53;;